aviador You're here:

EGUL Decoded Metar

LAKENHEATH in ENGLAND
Report Time2017-04-25 20:10:00
UTC Time2017-04-25 20:23:50
Flight Rules vfr VFR
Wind260° at 04 kt
W.Decomp.*RWY 24: 3.7 kt HW 1.4 kt RCW
W.Rank260° ranks 9
Current wind is below 260° avg. (9.5)
Visibility9999 m
Phenomena:N/A
Clouds:Scattered 019 Hf
CeilingNone
Temp02°C (ISA -13)
Dew Point02°C (100% RH)
AAT-1.1°C
QNH1014 hPa
Density Alt-1,480 ft
Elevation33 ft
Report Wrong Elevation
Raw Report
EGUL 252010Z AUTO 26004KT 9999 SCT019 02/02 A2993 RMK AO2=

Extra information for EGUL:More info

Metar Taf Metar & Taf Last 4 Metars F.Rules Stats Wind Profile Meteogram Temp Stats Airport Information Weather charts Add Link Nearby VenuesMetar ALERT Operation Metar Decoded Social comments